Time;durP1;ratioP1;P1;durP2;ratioP2;P2;SDS_P1;SDS_P2;PMS_P1;PMS_P2;Temp;Humidity;BMP_temperature;BMP_pressure;BME280_temperature;BME280_humidity;BME280_pressure;Samples;Min_cycle;Max_cycle;Signal;HPM_P1;HPM_P2
2024/01/05 00:01:25;;;;;;;3.70;2.30;;;;;;;;;;5057201;28;20032;-59
2024/01/05 00:03:51;;;;;;;4.47;2.55;;;;;;;;;;5056662;28;20033;-59
2024/01/05 00:06:17;;;;;;;7.22;3.22;;;;;;;;;;5056847;28;20360;-56
2024/01/05 00:08:46;;;;;;;4.97;2.67;;;;;;;;;;5057259;28;20032;-57
2024/01/05 00:11:19;;;;;;;3.45;2.30;;;;;;;;;;5056237;28;20533;-59
2024/01/05 00:13:45;;;;;;;2.97;2.03;;;;;;;;;;5056666;28;20075;-58
2024/01/05 00:16:21;;;;;;;5.43;2.97;;;;;;;;;;5056906;28;20028;-59
2024/01/05 00:18:47;;;;;;;5.72;2.65;;;;;;;;;;5056715;28;20451;-57
2024/01/05 00:21:23;;;;;;;3.83;2.53;;;;;;;;;;5056525;28;20029;-58
2024/01/05 00:23:50;;;;;;;7.18;2.47;;;;;;;;;;5057055;28;20029;-59
2024/01/05 00:26:16;;;;;;;5.07;2.90;;;;;;;;;;5056988;28;20074;-59
2024/01/05 00:28:42;;;;;;;5.13;2.90;;;;;;;;;;5057299;28;20044;-58
2024/01/05 00:31:11;;;;;;;6.95;3.60;;;;;;;;;;5056392;28;20029;-57
2024/01/05 00:33:38;;;;;;;10.55;3.70;;;;;;;;;;5056409;28;20159;-58
2024/01/05 00:36:05;;;;;;;8.40;3.22;;;;;;;;;;5056792;28;20029;-59
2024/01/05 00:38:31;;;;;;;12.93;4.35;;;;;;;;;;5056890;28;20029;-59
2024/01/05 00:40:57;;;;;;;6.05;3.92;;;;;;;;;;5055832;28;20039;-59
2024/01/05 00:43:22;;;;;;;4.38;3.35;;;;;;;;;;5056228;28;20048;-58
2024/01/05 00:45:48;;;;;;;13.45;3.85;;;;;;;;;;5056110;28;20056;-58
2024/01/05 00:48:14;;;;;;;7.68;4.10;;;;;;;;;;5056386;28;20025;-58
2024/01/05 00:50:40;;;;;;;5.38;3.45;;;;;;;;;;5056331;28;20079;-58
2024/01/05 00:53:06;;;;;;;4.72;3.85;;;;;;;;;;5056254;28;20033;-58
2024/01/05 00:55:33;;;;;;;11.50;3.88;;;;;;;;;;5055281;28;20086;-59
2024/01/05 00:57:59;;;;;;;8.70;4.30;;;;;;;;;;5056472;28;20028;-58
2024/01/05 01:00:25;;;;;;;5.32;3.30;;;;;;;;;;5055906;28;20025;-58
2024/01/05 01:02:54;;;;;;;5.22;3.42;;;;;;;;;;5055786;28;20051;-57
2024/01/05 01:05:20;;;;;;;8.32;3.33;;;;;;;;;;5055640;28;20094;-58
2024/01/05 01:07:46;;;;;;;6.22;3.55;;;;;;;;;;5056234;28;20116;-58
2024/01/05 01:10:12;;;;;;;8.07;3.63;;;;;;;;;;5056186;28;20362;-58
2024/01/05 01:12:37;;;;;;;7.07;3.33;;;;;;;;;;5056156;28;20033;-58
2024/01/05 01:15:04;;;;;;;6.80;3.08;;;;;;;;;;5055626;28;20059;-58
2024/01/05 01:17:30;;;;;;;7.38;3.50;;;;;;;;;;5056140;28;20025;-59
2024/01/05 01:19:56;;;;;;;6.90;3.53;;;;;;;;;;5055543;28;20427;-58
2024/01/05 01:22:22;;;;;;;7.13;3.25;;;;;;;;;;5055568;28;20039;-57
2024/01/05 01:24:48;;;;;;;2.92;2.22;;;;;;;;;;5056104;28;20119;-58
2024/01/05 01:27:14;;;;;;;4.20;2.33;;;;;;;;;;5055727;28;20029;-58
2024/01/05 01:29:40;;;;;;;8.50;2.70;;;;;;;;;;5055618;28;20029;-58
2024/01/05 01:32:09;;;;;;;4.72;2.40;;;;;;;;;;5055229;28;20405;-58
2024/01/05 01:34:35;;;;;;;5.22;2.42;;;;;;;;;;5055192;28;20029;-57
2024/01/05 01:37:00;;;;;;;5.22;2.33;;;;;;;;;;5055911;28;20029;-58
2024/01/05 01:39:26;;;;;;;5.15;2.45;;;;;;;;;;5054853;28;20021;-58
2024/01/05 01:41:52;;;;;;;7.75;1.70;;;;;;;;;;5054912;28;20044;-59
2024/01/05 01:44:18;;;;;;;3.67;2.15;;;;;;;;;;5055066;28;20484;-58
2024/01/05 01:46:48;;;;;;;5.65;2.00;;;;;;;;;;5055493;28;20451;-59
2024/01/05 01:49:13;;;;;;;7.07;2.50;;;;;;;;;;5055471;28;20359;-58
2024/01/05 01:51:41;;;;;;;2.15;1.23;;;;;;;;;;5055484;28;20029;-58
2024/01/05 01:54:06;;;;;;;4.80;1.63;;;;;;;;;;5054884;28;20029;-58
2024/01/05 01:56:33;;;;;;;10.43;1.83;;;;;;;;;;5054645;28;20246;-58
2024/01/05 01:58:59;;;;;;;8.00;1.38;;;;;;;;;;5055043;28;20032;-58
2024/01/05 02:01:25;;;;;;;4.18;1.55;;;;;;;;;;5054650;28;20379;-57
2024/01/05 02:03:51;;;;;;;5.00;1.65;;;;;;;;;;5054861;28;20029;-57
2024/01/05 02:06:17;;;;;;;4.43;1.42;;;;;;;;;;5054894;28;20432;-58
2024/01/05 02:08:44;;;;;;;3.15;1.10;;;;;;;;;;5054668;28;20037;-55
2024/01/05 02:11:10;;;;;;;4.20;1.15;;;;;;;;;;5054474;28;20323;-59
2024/01/05 02:13:36;;;;;;;2.88;1.27;;;;;;;;;;5055281;28;20108;-59
2024/01/05 02:16:02;;;;;;;2.50;1.40;;;;;;;;;;5054470;28;20029;-59
2024/01/05 02:18:28;;;;;;;5.70;1.95;;;;;;;;;;5055034;28;20029;-59
2024/01/05 02:20:54;;;;;;;4.43;1.42;;;;;;;;;;5054350;28;20028;-59
2024/01/05 02:23:27;;;;;;;4.13;1.55;;;;;;;;;;5054340;28;20481;-58
2024/01/05 02:25:54;;;;;;;4.47;1.13;;;;;;;;;;5054465;28;20029;-59
2024/01/05 02:28:20;;;;;;;2.28;1.33;;;;;;;;;;5054786;28;20114;-59
2024/01/05 02:30:46;;;;;;;5.10;2.20;;;;;;;;;;5054492;28;20025;-58
2024/01/05 02:33:12;;;;;;;4.80;2.33;;;;;;;;;;5053915;28;20025;-57
2024/01/05 02:35:38;;;;;;;7.03;1.48;;;;;;;;;;5054136;28;20028;-59
2024/01/05 02:38:05;;;;;;;6.50;1.42;;;;;;;;;;5054862;28;20025;-59
2024/01/05 02:40:31;;;;;;;2.25;1.35;;;;;;;;;;5054533;28;20471;-58
2024/01/05 02:42:57;;;;;;;2.55;1.45;;;;;;;;;;5053906;28;20121;-59
2024/01/05 02:45:24;;;;;;;2.95;1.15;;;;;;;;;;5054474;28;20029;-59
2024/01/05 02:47:50;;;;;;;4.10;1.63;;;;;;;;;;5054515;28;20474;-59
2024/01/05 02:50:16;;;;;;;5.55;1.98;;;;;;;;;;5054446;28;20029;-59
2024/01/05 02:52:42;;;;;;;1.75;1.10;;;;;;;;;;5054156;28;20104;-59
2024/01/05 02:55:10;;;;;;;2.70;1.40;;;;;;;;;;5053818;28;20029;-59
2024/01/05 02:57:36;;;;;;;4.00;1.50;;;;;;;;;;5054162;28;20095;-59
2024/01/05 03:00:03;;;;;;;4.03;1.58;;;;;;;;;;5053740;28;20108;-59
2024/01/05 03:02:29;;;;;;;3.33;1.38;;;;;;;;;;5053629;28;20037;-59
2024/01/05 03:04:55;;;;;;;2.80;1.50;;;;;;;;;;5054088;28;20549;-59
2024/01/05 03:07:21;;;;;;;4.03;1.08;;;;;;;;;;5054474;28;20036;-56
2024/01/05 03:09:47;;;;;;;3.33;1.60;;;;;;;;;;5053683;28;20025;-58
2024/01/05 03:12:13;;;;;;;4.72;1.50;;;;;;;;;;5053784;28;20024;-58
2024/01/05 03:14:39;;;;;;;7.85;1.67;;;;;;;;;;5053549;28;20029;-59
2024/01/05 03:17:05;;;;;;;2.45;0.98;;;;;;;;;;5053487;28;20421;-59
2024/01/05 03:19:31;;;;;;;2.53;1.90;;;;;;;;;;5060680;28;20120;-58
2024/01/05 03:21:57;;;;;;;2.95;1.10;;;;;;;;;;5060332;28;20175;-58
2024/01/05 03:24:24;;;;;;;4.35;1.27;;;;;;;;;;5059907;28;20024;-57
2024/01/05 03:26:50;;;;;;;3.10;1.38;;;;;;;;;;5060608;28;20032;-57
2024/01/05 03:29:16;;;;;;;3.38;0.95;;;;;;;;;;5060677;28;20375;-58
2024/01/05 03:31:48;;;;;;;3.22;1.30;;;;;;;;;;5060016;28;20463;-56
2024/01/05 03:34:14;;;;;;;2.60;1.40;;;;;;;;;;5060181;28;20074;-59
2024/01/05 03:36:40;;;;;;;4.03;0.88;;;;;;;;;;5060272;28;20025;-56
2024/01/05 03:39:07;;;;;;;6.35;1.50;;;;;;;;;;5060569;28;20116;-58
2024/01/05 03:41:33;;;;;;;5.28;1.30;;;;;;;;;;5059951;28;20455;-57
2024/01/05 03:43:59;;;;;;;3.80;0.80;;;;;;;;;;5060513;28;20421;-58
2024/01/05 03:46:25;;;;;;;4.75;1.63;;;;;;;;;;5059964;28;20113;-58
2024/01/05 03:48:51;;;;;;;1.30;0.73;;;;;;;;;;5060238;28;20075;-56
2024/01/05 03:51:17;;;;;;;3.38;1.10;;;;;;;;;;5059872;28;20033;-58
2024/01/05 03:53:43;;;;;;;4.82;1.58;;;;;;;;;;5059985;28;20126;-58
2024/01/05 03:56:09;;;;;;;3.85;1.55;;;;;;;;;;5059655;28;20076;-56
2024/01/05 03:58:35;;;;;;;3.40;1.42;;;;;;;;;;5059806;28;20041;-58
2024/01/05 04:01:01;;;;;;;1.48;0.70;;;;;;;;;;5059747;28;20029;-58
2024/01/05 04:03:27;;;;;;;2.92;1.27;;;;;;;;;;5060202;28;20033;-58
2024/01/05 04:05:53;;;;;;;2.25;0.90;;;;;;;;;;5059844;28;20048;-58
2024/01/05 04:08:19;;;;;;;3.83;0.75;;;;;;;;;;5060080;28;20378;-58
2024/01/05 04:10:45;;;;;;;3.10;1.13;;;;;;;;;;5060037;28;20024;-57
2024/01/05 04:13:11;;;;;;;3.13;1.10;;;;;;;;;;5060243;28;20086;-58
2024/01/05 04:15:37;;;;;;;2.88;0.82;;;;;;;;;;5059697;28;20257;-59
2024/01/05 04:18:03;;;;;;;1.88;0.90;;;;;;;;;;5060288;28;20032;-58
2024/01/05 04:20:29;;;;;;;1.40;0.70;;;;;;;;;;5059647;28;20021;-57
2024/01/05 04:22:55;;;;;;;3.15;0.75;;;;;;;;;;5059518;28;20459;-56
2024/01/05 04:25:21;;;;;;;6.28;1.10;;;;;;;;;;5059578;28;20108;-59
2024/01/05 04:27:47;;;;;;;2.15;1.08;;;;;;;;;;5060160;28;20059;-58
2024/01/05 04:30:13;;;;;;;1.27;0.60;;;;;;;;;;5056345;28;20033;-58
2024/01/05 04:32:39;;;;;;;1.45;0.68;;;;;;;;;;5056383;28;20376;-59
2024/01/05 04:35:05;;;;;;;4.03;0.80;;;;;;;;;;5056900;28;20162;-58
2024/01/05 04:37:31;;;;;;;2.03;0.80;;;;;;;;;;5056327;28;20473;-57
2024/01/05 04:39:57;;;;;;;2.80;0.80;;;;;;;;;;5056234;28;20033;-58
2024/01/05 04:42:23;;;;;;;4.45;0.75;;;;;;;;;;5056178;28;20025;-59
2024/01/05 04:44:49;;;;;;;2.83;1.17;;;;;;;;;;5056490;28;20039;-58
2024/01/05 04:47:15;;;;;;;3.58;0.73;;;;;;;;;;5056690;28;20423;-58
2024/01/05 04:49:41;;;;;;;6.07;1.17;;;;;;;;;;5055804;28;20222;-58
2024/01/05 04:52:07;;;;;;;3.60;0.98;;;;;;;;;;5056871;28;20530;-59
2024/01/05 04:54:33;;;;;;;4.43;1.48;;;;;;;;;;5055698;28;20025;-59
2024/01/05 04:57:01;;;;;;;2.38;1.05;;;;;;;;;;5056080;28;20135;-59
2024/01/05 04:59:27;;;;;;;2.28;0.85;;;;;;;;;;5055539;28;20548;-57
2024/01/05 05:01:53;;;;;;;2.80;1.25;;;;;;;;;;5056021;28;20029;-58
2024/01/05 05:04:19;;;;;;;2.95;0.93;;;;;;;;;;5056074;28;20032;-57
2024/01/05 05:06:45;;;;;;;0.95;0.65;;;;;;;;;;5056149;28;20035;-59
2024/01/05 05:09:12;;;;;;;1.60;0.68;;;;;;;;;;5055613;28;20064;-58
2024/01/05 05:11:39;;;;;;;3.80;0.98;;;;;;;;;;5056290;28;20056;-59
2024/01/05 05:14:05;;;;;;;4.53;0.95;;;;;;;;;;5055734;28;20029;-58
2024/01/05 05:16:32;;;;;;;2.35;0.80;;;;;;;;;;5055980;28;20021;-59
2024/01/05 05:18:58;;;;;;;1.92;0.68;;;;;;;;;;5055713;28;20057;-59
2024/01/05 05:21:25;;;;;;;1.20;0.60;;;;;;;;;;5056097;28;20470;-59
2024/01/05 05:23:51;;;;;;;1.88;0.80;;;;;;;;;;5055528;28;20116;-58
2024/01/05 05:26:17;;;;;;;1.38;0.70;;;;;;;;;;5055572;28;20484;-59
2024/01/05 05:28:43;;;;;;;1.58;0.77;;;;;;;;;;5056307;28;20108;-59
2024/01/05 05:31:09;;;;;;;0.68;0.40;;;;;;;;;;5055099;28;20458;-58
2024/01/05 05:33:35;;;;;;;3.53;0.50;;;;;;;;;;5055898;28;20033;-59
2024/01/05 05:36:01;;;;;;;2.20;0.70;;;;;;;;;;5055365;28;20356;-58
2024/01/05 05:38:27;;;;;;;1.98;0.70;;;;;;;;;;5055673;28;20115;-59
2024/01/05 05:40:53;;;;;;;6.38;1.33;;;;;;;;;;5055223;28;20439;-59
2024/01/05 05:43:19;;;;;;;1.08;0.60;;;;;;;;;;5055707;28;20033;-58
2024/01/05 05:45:45;;;;;;;0.93;0.47;;;;;;;;;;5055382;28;20043;-59
2024/01/05 05:48:13;;;;;;;1.95;0.90;;;;;;;;;;5055500;28;20025;-59
2024/01/05 05:50:39;;;;;;;1.42;0.52;;;;;;;;;;5055537;28;20106;-59
2024/01/05 05:53:05;;;;;;;3.83;1.10;;;;;;;;;;5054719;28;20017;-59
2024/01/05 05:55:30;;;;;;;3.22;0.77;;;;;;;;;;5055315;28;20401;-59
2024/01/05 05:57:57;;;;;;;1.58;0.80;;;;;;;;;;5055176;28;20523;-59
2024/01/05 06:00:25;;;;;;;2.08;0.80;;;;;;;;;;5055679;28;20048;-59
2024/01/05 06:02:51;;;;;;;1.00;0.47;;;;;;;;;;5054670;28;20086;-59
2024/01/05 06:05:17;;;;;;;0.93;0.65;;;;;;;;;;5054669;28;20033;-59
2024/01/05 06:07:42;;;;;;;1.20;0.77;;;;;;;;;;5055322;28;20029;-59
2024/01/05 06:10:08;;;;;;;2.05;0.90;;;;;;;;;;5054375;28;20033;-59
2024/01/05 06:12:34;;;;;;;4.88;1.13;;;;;;;;;;5054722;28;20033;-59
2024/01/05 06:15:00;;;;;;;4.93;0.85;;;;;;;;;;5054617;28;20025;-58
2024/01/05 06:17:26;;;;;;;1.73;0.98;;;;;;;;;;5055207;28;20033;-59
2024/01/05 06:19:52;;;;;;;2.33;0.85;;;;;;;;;;5054750;28;20421;-58
2024/01/05 06:22:20;;;;;;;5.32;0.77;;;;;;;;;;5054177;28;20032;-58
2024/01/05 06:24:46;;;;;;;0.68;0.28;;;;;;;;;;5054989;28;20029;-59
2024/01/05 06:27:12;;;;;;;1.13;0.47;;;;;;;;;;5055224;28;20059;-57
2024/01/05 06:29:38;;;;;;;1.00;0.40;;;;;;;;;;5054280;28;20477;-58
2024/01/05 06:32:04;;;;;;;1.02;0.60;;;;;;;;;;5054321;28;20375;-57
2024/01/05 06:34:30;;;;;;;1.33;0.80;;;;;;;;;;5053944;28;20029;-58
2024/01/05 06:36:56;;;;;;;0.90;0.52;;;;;;;;;;5054407;28;20032;-58
2024/01/05 06:39:23;;;;;;;2.35;0.75;;;;;;;;;;5055022;28;20040;-59
2024/01/05 06:41:49;;;;;;;2.40;0.80;;;;;;;;;;5053999;28;20025;-57
2024/01/05 06:44:15;;;;;;;2.15;0.82;;;;;;;;;;5054029;28;20087;-58
2024/01/05 06:46:41;;;;;;;3.67;1.27;;;;;;;;;;5054042;28;20021;-58
2024/01/05 06:49:06;;;;;;;1.17;0.63;;;;;;;;;;5054548;28;20028;-59
2024/01/05 06:51:39;;;;;;;2.22;0.88;;;;;;;;;;5054148;28;20107;-58
2024/01/05 06:54:05;;;;;;;2.10;0.80;;;;;;;;;;5053002;28;20032;-58
2024/01/05 06:56:34;;;;;;;1.95;0.68;;;;;;;;;;5053999;28;20525;-58
2024/01/05 06:59:01;;;;;;;2.10;0.80;;;;;;;;;;5054371;28;20027;-59
2024/01/05 07:01:27;;;;;;;4.07;0.95;;;;;;;;;;5054490;28;20033;-58
2024/01/05 07:03:53;;;;;;;1.90;0.75;;;;;;;;;;5053772;28;20035;-58
2024/01/05 07:06:19;;;;;;;1.83;0.77;;;;;;;;;;5054345;28;20060;-59
2024/01/05 07:08:45;;;;;;;1.48;0.73;;;;;;;;;;5054387;28;20060;-57
2024/01/05 07:11:23;;;;;;;1.73;0.82;;;;;;;;;;5053674;28;20029;-58
2024/01/05 07:13:51;;;;;;;1.88;0.70;;;;;;;;;;5053772;28;20025;-57
2024/01/05 07:16:18;;;;;;;3.05;0.95;;;;;;;;;;5053906;28;20033;-58
2024/01/05 07:18:44;;;;;;;1.67;0.93;;;;;;;;;;5054253;28;20032;-59
2024/01/05 07:21:10;;;;;;;2.38;0.80;;;;;;;;;;5053479;28;20021;-58
2024/01/05 07:23:38;;;;;;;1.70;1.00;;;;;;;;;;5053577;28;20029;-58
2024/01/05 07:26:05;;;;;;;2.95;0.70;;;;;;;;;;5053840;28;20083;-59
2024/01/05 07:28:30;;;;;;;1.52;0.70;;;;;;;;;;5053320;28;20040;-59
2024/01/05 07:30:56;;;;;;;1.73;0.75;;;;;;;;;;5053340;28;20025;-56
2024/01/05 07:33:22;;;;;;;6.47;1.90;;;;;;;;;;5054024;28;20025;-58
2024/01/05 07:35:48;;;;;;;1.77;0.93;;;;;;;;;;5053706;28;20028;-57
2024/01/05 07:38:14;;;;;;;3.05;1.08;;;;;;;;;;5053843;28;20029;-58
2024/01/05 07:40:40;;;;;;;4.70;0.82;;;;;;;;;;5053921;28;20032;-58
2024/01/05 07:43:07;;;;;;;3.35;1.00;;;;;;;;;;5052996;28;20037;-58
2024/01/05 07:45:33;;;;;;;1.55;0.70;;;;;;;;;;5053068;28;20475;-58
2024/01/05 07:47:59;;;;;;;2.58;0.93;;;;;;;;;;5053383;28;20025;-57
2024/01/05 07:50:25;;;;;;;1.50;0.93;;;;;;;;;;5053400;28;20024;-58
2024/01/05 07:52:51;;;;;;;3.80;1.20;;;;;;;;;;5053536;28;20032;-57
2024/01/05 07:55:17;;;;;;;3.50;1.02;;;;;;;;;;5053125;28;20029;-59
2024/01/05 07:57:43;;;;;;;1.30;0.70;;;;;;;;;;5053812;28;20028;-59
2024/01/05 08:00:10;;;;;;;1.73;0.82;;;;;;;;;;5053534;28;20025;-58
2024/01/05 08:02:36;;;;;;;2.35;0.90;;;;;;;;;;5053314;28;20064;-58
2024/01/05 08:05:02;;;;;;;4.00;1.42;;;;;;;;;;5056202;28;20083;-58
2024/01/05 08:07:28;;;;;;;2.42;1.13;;;;;;;;;;5056946;28;20029;-59
2024/01/05 08:09:54;;;;;;;2.55;1.05;;;;;;;;;;5057420;28;20100;-59
2024/01/05 08:12:20;;;;;;;3.80;1.00;;;;;;;;;;5056853;28;20103;-58
2024/01/05 08:14:47;;;;;;;1.48;0.57;;;;;;;;;;5056915;28;20033;-59
2024/01/05 08:17:13;;;;;;;4.15;1.30;;;;;;;;;;5057270;28;20021;-58
2024/01/05 08:19:39;;;;;;;1.13;0.73;;;;;;;;;;5056798;28;20048;-58
2024/01/05 08:22:05;;;;;;;1.45;1.02;;;;;;;;;;5056518;28;20489;-58
2024/01/05 08:24:31;;;;;;;4.10;1.70;;;;;;;;;;5057165;28;20029;-59
2024/01/05 08:26:57;;;;;;;2.42;1.05;;;;;;;;;;5056916;28;20032;-58
2024/01/05 08:29:23;;;;;;;3.20;1.45;;;;;;;;;;5056879;28;20439;-59
2024/01/05 08:31:49;;;;;;;2.13;0.93;;;;;;;;;;5057314;28;20029;-58
2024/01/05 08:34:16;;;;;;;5.28;1.70;;;;;;;;;;5056404;28;20417;-58
2024/01/05 08:36:42;;;;;;;3.22;1.10;;;;;;;;;;5056405;28;20362;-57
2024/01/05 08:39:08;;;;;;;3.33;1.08;;;;;;;;;;5056802;28;20032;-56
2024/01/05 08:41:34;;;;;;;1.67;1.02;;;;;;;;;;5056791;28;20025;-53
2024/01/05 08:44:00;;;;;;;2.75;1.08;;;;;;;;;;5055952;28;20036;-56
2024/01/05 08:46:29;;;;;;;4.90;2.03;;;;;;;;;;5056209;28;20032;-55
2024/01/05 08:48:55;;;;;;;2.63;0.95;;;;;;;;;;5056476;28;20025;-54
2024/01/05 08:51:21;;;;;;;1.98;0.95;;;;;;;;;;5056692;28;20473;-57
2024/01/05 08:53:47;;;;;;;3.63;0.88;;;;;;;;;;5055751;28;20036;-54
2024/01/05 08:56:13;;;;;;;1.48;0.90;;;;;;;;;;5056657;28;20049;-54
2024/01/05 08:58:39;;;;;;;3.67;1.55;;;;;;;;;;5055635;28;20122;-53
2024/01/05 09:01:05;;;;;;;1.90;0.70;;;;;;;;;;5056174;28;20029;-55
2024/01/05 09:03:31;;;;;;;1.42;0.55;;;;;;;;;;5056553;28;20321;-57
2024/01/05 09:05:57;;;;;;;1.92;1.02;;;;;;;;;;5055760;28;20032;-53
2024/01/05 09:08:23;;;;;;;3.88;1.10;;;;;;;;;;5056304;28;20060;-53
2024/01/05 09:10:49;;;;;;;3.33;1.20;;;;;;;;;;5055784;28;20025;-55
2024/01/05 09:13:15;;;;;;;3.90;1.55;;;;;;;;;;5055523;28;20033;-57
2024/01/05 09:15:41;;;;;;;7.35;1.13;;;;;;;;;;5055539;28;20025;-57
2024/01/05 09:18:07;;;;;;;5.45;1.13;;;;;;;;;;5055863;28;20029;-57
2024/01/05 09:20:33;;;;;;;4.25;1.27;;;;;;;;;;5055759;28;20029;-56
2024/01/05 09:23:00;;;;;;;2.85;1.40;;;;;;;;;;5055435;28;20090;-58
2024/01/05 09:25:26;;;;;;;2.25;1.02;;;;;;;;;;5055914;28;20036;-58
2024/01/05 09:27:52;;;;;;;5.82;1.50;;;;;;;;;;5055825;28;20359;-55
2024/01/05 09:30:18;;;;;;;3.17;1.48;;;;;;;;;;5055131;28;20025;-57
2024/01/05 09:32:44;;;;;;;2.95;1.02;;;;;;;;;;5055670;28;20064;-53
2024/01/05 09:35:11;;;;;;;2.88;1.33;;;;;;;;;;5055032;28;20024;-55
2024/01/05 09:37:37;;;;;;;3.92;1.20;;;;;;;;;;5055284;28;20036;-54
2024/01/05 09:40:03;;;;;;;2.90;1.20;;;;;;;;;;5055144;28;20033;-54
2024/01/05 09:42:29;;;;;;;2.75;1.17;;;;;;;;;;5055013;28;20370;-52
2024/01/05 09:44:55;;;;;;;2.50;0.93;;;;;;;;;;5055180;28;20055;-55
2024/01/05 09:47:22;;;;;;;4.45;1.42;;;;;;;;;;5055309;28;20028;-56
2024/01/05 09:49:51;;;;;;;4.50;1.02;;;;;;;;;;5055045;28;20035;-55
2024/01/05 09:52:22;;;;;;;3.70;1.15;;;;;;;;;;5055070;28;20083;-55
2024/01/05 09:54:50;;;;;;;2.47;1.05;;;;;;;;;;5054933;28;20031;-56
2024/01/05 09:57:17;;;;;;;2.20;0.90;;;;;;;;;;5055119;28;20064;-56
2024/01/05 09:59:45;;;;;;;2.35;1.13;;;;;;;;;;5054757;28;20033;-56
2024/01/05 10:02:14;;;;;;;1.30;0.68;;;;;;;;;;5055120;28;20094;-56
2024/01/05 10:04:40;;;;;;;3.83;1.27;;;;;;;;;;5054963;28;20029;-55
2024/01/05 10:07:06;;;;;;;2.60;0.90;;;;;;;;;;5055278;28;20053;-53
2024/01/05 10:09:32;;;;;;;2.70;1.17;;;;;;;;;;5054986;28;20367;-55
2024/01/05 10:11:58;;;;;;;0.90;0.57;;;;;;;;;;5054518;28;20033;-56
2024/01/05 10:14:28;;;;;;;1.33;0.52;;;;;;;;;;5055000;28;20122;-57
2024/01/05 10:17:09;;;;;;;1.85;0.90;;;;;;;;;;5054437;28;20111;-58
2024/01/05 10:19:35;;;;;;;2.55;1.10;;;;;;;;;;5054440;28;20029;-57
2024/01/05 10:22:11;;;;;;;2.58;1.05;;;;;;;;;;5054689;28;20063;-56
2024/01/05 10:24:37;;;;;;;5.80;1.40;;;;;;;;;;5054489;28;20086;-58
2024/01/05 10:27:07;;;;;;;2.13;1.00;;;;;;;;;;5053641;28;20490;-57
2024/01/05 10:29:34;;;;;;;4.80;1.20;;;;;;;;;;5054157;28;20029;-58
2024/01/05 10:32:10;;;;;;;1.38;0.73;;;;;;;;;;5054126;28;20090;-57
2024/01/05 10:34:37;;;;;;;4.32;1.50;;;;;;;;;;5055001;28;20044;-57
2024/01/05 10:37:04;;;;;;;3.22;1.27;;;;;;;;;;5054180;28;20028;-58
2024/01/05 10:39:30;;;;;;;3.47;1.38;;;;;;;;;;5054653;28;20025;-57
2024/01/05 10:42:14;;;;;;;2.75;1.45;;;;;;;;;;5054386;28;20040;-58
2024/01/05 10:44:41;;;;;;;3.45;1.35;;;;;;;;;;5054649;28;20025;-58
2024/01/05 10:47:07;;;;;;;3.15;0.90;;;;;;;;;;5053514;28;20044;-57
2024/01/05 10:49:33;;;;;;;3.38;1.23;;;;;;;;;;5053985;28;20025;-57
2024/01/05 10:51:59;;;;;;;3.05;1.25;;;;;;;;;;5054232;28;20037;-58
2024/01/05 10:54:25;;;;;;;3.20;1.27;;;;;;;;;;5053638;28;20021;-57
2024/01/05 10:56:56;;;;;;;3.63;1.45;;;;;;;;;;5052341;28;20094;-58
2024/01/05 10:59:23;;;;;;;;;;;;;;;;;;5054686;28;20021;-58
2024/01/05 11:01:50;;;;;;;3.90;1.85;;;;;;;;;;5053691;28;20251;-58
2024/01/05 11:04:17;;;;;;;4.30;1.48;;;;;;;;;;5053302;28;20044;-58
2024/01/05 11:06:43;;;;;;;2.88;1.30;;;;;;;;;;5054451;28;20183;-58
2024/01/05 11:09:16;;;;;;;2.33;1.30;;;;;;;;;;5053766;28;20467;-58
2024/01/05 11:11:52;;;;;;;3.65;1.42;;;;;;;;;;5054048;28;20029;-58
2024/01/05 11:14:34;;;;;;;3.83;1.67;;;;;;;;;;5054037;28;20021;-58
2024/01/05 11:17:16;;;;;;;1.67;0.82;;;;;;;;;;5053994;28;20091;-57
2024/01/05 11:20:01;;;;;;;3.72;1.08;;;;;;;;;;5053746;28;20035;-58
2024/01/05 11:22:29;;;;;;;2.35;1.33;;;;;;;;;;5053572;28;20370;-58
2024/01/05 11:24:57;;;;;;;3.45;0.90;;;;;;;;;;5053676;28;20215;-58
2024/01/05 11:27:27;;;;;;;3.78;1.38;;;;;;;;;;5053578;28;20040;-58
2024/01/05 11:29:54;;;;;;;4.00;2.30;;;;;;;;;;5053578;28;20035;-58
2024/01/05 11:32:36;;;;;;;7.03;1.95;;;;;;;;;;5053787;28;20021;-58
2024/01/05 11:35:03;;;;;;;2.78;1.35;;;;;;;;;;5054035;28;20025;-58
2024/01/05 11:37:30;;;;;;;3.30;1.23;;;;;;;;;;5053979;28;20413;-58
2024/01/05 11:39:56;;;;;;;3.67;1.58;;;;;;;;;;5056574;28;20029;-58
2024/01/05 11:42:27;;;;;;;2.03;1.20;;;;;;;;;;5057472;28;20405;-59
2024/01/05 11:44:53;;;;;;;3.33;1.23;;;;;;;;;;5057356;28;20036;-56
2024/01/05 11:47:39;;;;;;;2.35;1.10;;;;;;;;;;5057952;28;20029;-58
2024/01/05 11:50:26;;;;;;;4.57;1.45;;;;;;;;;;5057253;28;20025;-58
2024/01/05 11:53:13;;;;;;;4.75;1.35;;;;;;;;;;5056978;28;20463;-58
2024/01/05 11:55:45;;;;;;;1.90;1.00;;;;;;;;;;5057457;28;20045;-58
2024/01/05 11:58:15;;;;;;;2.33;1.33;;;;;;;;;;5057884;28;20029;-58
2024/01/05 12:00:44;;;;;;;4.63;1.23;;;;;;;;;;5057435;28;20472;-58
2024/01/05 12:03:10;;;;;;;2.17;1.27;;;;;;;;;;5056781;28;20052;-58
2024/01/05 12:05:37;;;;;;;3.13;1.50;;;;;;;;;;5056727;28;20402;-58
2024/01/05 12:08:03;;;;;;;3.83;1.50;;;;;;;;;;5057387;28;20024;-58
2024/01/05 12:10:29;;;;;;;2.47;1.20;;;;;;;;;;5056693;28;20458;-58
2024/01/05 12:12:55;;;;;;;2.13;1.10;;;;;;;;;;5057278;28;20091;-58
2024/01/05 12:15:22;;;;;;;5.10;1.85;;;;;;;;;;5056706;28;20103;-58
2024/01/05 12:17:48;;;;;;;2.10;1.35;;;;;;;;;;5057132;28;20016;-56
2024/01/05 12:20:14;;;;;;;2.90;1.40;;;;;;;;;;5057249;28;20029;-58
2024/01/05 12:22:41;;;;;;;2.80;1.00;;;;;;;;;;5057258;28;20033;-58
2024/01/05 12:25:07;;;;;;;4.05;1.45;;;;;;;;;;5056138;28;20037;-58
2024/01/05 12:27:40;;;;;;;3.60;1.17;;;;;;;;;;5057173;28;20070;-56
2024/01/05 12:30:07;;;;;;;5.03;1.67;;;;;;;;;;5057112;28;20392;-57
2024/01/05 12:32:33;;;;;;;2.88;1.40;;;;;;;;;;5056474;28;20149;-58
2024/01/05 12:35:00;;;;;;;11.20;2.38;;;;;;;;;;5056601;28;20044;-58
2024/01/05 12:37:26;;;;;;;3.03;1.70;;;;;;;;;;5056736;28;20025;-58
2024/01/05 12:39:52;;;;;;;3.35;1.90;;;;;;;;;;5056394;28;20524;-57
2024/01/05 12:42:18;;;;;;;3.67;1.42;;;;;;;;;;5056283;28;20065;-57
2024/01/05 12:44:44;;;;;;;3.00;1.33;;;;;;;;;;5057060;28;20110;-58
2024/01/05 12:47:11;;;;;;;4.80;1.65;;;;;;;;;;5056472;28;20484;-58
2024/01/05 12:49:37;;;;;;;4.32;1.67;;;;;;;;;;5056112;28;20079;-58
2024/01/05 12:52:03;;;;;;;1.63;0.98;;;;;;;;;;5055302;28;20047;-57
2024/01/05 12:54:39;;;;;;;5.55;1.45;;;;;;;;;;5055929;28;20027;-57
2024/01/05 12:57:05;;;;;;;3.05;1.33;;;;;;;;;;5056489;28;20041;-57
2024/01/05 12:59:32;;;;;;;3.30;1.50;;;;;;;;;;5055909;28;20107;-58
2024/01/05 13:01:59;;;;;;;1.60;0.98;;;;;;;;;;5056563;28;20033;-57
2024/01/05 13:04:29;;;;;;;7.95;2.15;;;;;;;;;;5055752;28;20117;-58
2024/01/05 13:06:55;;;;;;;1.38;0.77;;;;;;;;;;5055931;28;20029;-56
2024/01/05 13:09:21;;;;;;;2.63;1.40;;;;;;;;;;5056156;28;20028;-58
2024/01/05 13:11:53;;;;;;;3.30;1.33;;;;;;;;;;5056161;28;20037;-57
2024/01/05 13:14:19;;;;;;;3.28;1.48;;;;;;;;;;5055683;28;20033;-58
2024/01/05 13:16:46;;;;;;;3.22;1.20;;;;;;;;;;5056126;28;20112;-57
2024/01/05 13:19:12;;;;;;;3.72;1.50;;;;;;;;;;5055644;28;20055;-58
2024/01/05 13:21:38;;;;;;;3.92;1.48;;;;;;;;;;5055246;28;20029;-58
2024/01/05 13:24:04;;;;;;;2.70;0.90;;;;;;;;;;5055938;28;20033;-58
2024/01/05 13:26:30;;;;;;;4.60;1.33;;;;;;;;;;5056269;28;20033;-58
2024/01/05 13:28:56;;;;;;;5.38;1.83;;;;;;;;;;5055564;28;20204;-58
2024/01/05 13:31:22;;;;;;;2.85;1.40;;;;;;;;;;5055479;28;20120;-56
2024/01/05 13:33:48;;;;;;;3.33;1.48;;;;;;;;;;5055533;28;20438;-57
2024/01/05 13:36:14;;;;;;;2.38;1.30;;;;;;;;;;5055908;28;20032;-56
2024/01/05 13:38:40;;;;;;;2.30;1.23;;;;;;;;;;5056217;28;20082;-58
2024/01/05 13:41:06;;;;;;;3.33;1.10;;;;;;;;;;5055737;28;20040;-58
2024/01/05 13:43:34;;;;;;;3.90;1.30;;;;;;;;;;5054841;28;20479;-58
2024/01/05 13:46:00;;;;;;;2.85;1.40;;;;;;;;;;5055652;28;20360;-58
2024/01/05 13:48:26;;;;;;;1.98;1.08;;;;;;;;;;5055751;28;20025;-58
2024/01/05 13:50:52;;;;;;;3.05;1.67;;;;;;;;;;5054999;28;20021;-58
2024/01/05 13:53:18;;;;;;;2.35;1.08;;;;;;;;;;5055009;28;20029;-57
2024/01/05 13:55:44;;;;;;;1.83;1.00;;;;;;;;;;5054858;28;20053;-58
2024/01/05 13:58:10;;;;;;;7.18;1.52;;;;;;;;;;5054888;28;20021;-57
2024/01/05 14:00:36;;;;;;;2.40;1.52;;;;;;;;;;5055375;28;20024;-58
2024/01/05 14:03:02;;;;;;;2.17;1.08;;;;;;;;;;5054246;28;20467;-58
2024/01/05 14:05:28;;;;;;;4.25;1.65;;;;;;;;;;5054658;28;20029;-58
2024/01/05 14:07:54;;;;;;;1.90;1.08;;;;;;;;;;5055563;28;20032;-57
2024/01/05 14:10:20;;;;;;;2.20;1.23;;;;;;;;;;5055122;28;20021;-58
2024/01/05 14:12:46;;;;;;;3.60;1.15;;;;;;;;;;5055004;28;20032;-58
2024/01/05 14:15:13;;;;;;;4.47;1.27;;;;;;;;;;5054596;28;20064;-58
2024/01/05 14:17:39;;;;;;;2.10;1.10;;;;;;;;;;5054704;28;20086;-58
2024/01/05 14:20:08;;;;;;;2.55;1.38;;;;;;;;;;5054489;28;20033;-58
2024/01/05 14:22:35;;;;;;;2.05;1.15;;;;;;;;;;5054062;28;20467;-58
2024/01/05 14:25:01;;;;;;;4.43;1.50;;;;;;;;;;5054318;28;20459;-58
2024/01/05 14:27:27;;;;;;;2.67;1.40;;;;;;;;;;5054425;28;20021;-59
2024/01/05 14:29:53;;;;;;;3.78;1.13;;;;;;;;;;5053963;28;20021;-58
2024/01/05 14:32:19;;;;;;;5.32;1.65;;;;;;;;;;5053986;28;20031;-58
2024/01/05 14:34:45;;;;;;;4.32;1.38;;;;;;;;;;5053810;28;20379;-59
2024/01/05 14:37:11;;;;;;;2.17;1.27;;;;;;;;;;5053796;28;20021;-57
2024/01/05 14:39:37;;;;;;;6.38;1.45;;;;;;;;;;5054553;28;20435;-57
2024/01/05 14:42:03;;;;;;;4.55;1.60;;;;;;;;;;5053904;28;20060;-57